Terminal Aerodrome Forecast
Issued by NWS

Home | Current Version | Previous Version | Text Only | Print | Product List | Glossary On
Versions: 1 2 3 4 5 6 7 8 9 10 11 12 13 14 15 16 17 18 19 20 21 22 23 24 25
000
FTUS46 KSEW 012300
TAFSEA
TAF
KSEA 012320Z 0200/0306 23005KT P6SM OVC100
     FM020300 04005KT P6SM -RA BKN050 OVC080
     FM020900 03006KT P6SM BKN025 OVC040
     FM021500 01007KT P6SM BKN030
     FM021800 36012KT P6SM BKN050=

USA.gov is the U.S. government's official web portal to all federal, state and local government web resources and services.